ASN logo
ASN Wikibase Occurrence # 221633
Last updated: 23 April 2019
This information is added by users of ASN. Neither ASN nor the Flight Safety Foundation are responsible for the completeness or correctness of this information. If you feel this information is incomplete or incorrect, you can submit corrected information.

Date:07-FEB-2019
Time:09:46 UTC
Type:Silhouette image of generic A20N model; specific model in this crash may look slightly different
Airbus A320-251N
Owner/operator:SAS Scandinavian Airlines
Registration: SE-ROE
C/n / msn: 7791
Fatalities:Fatalities: 0 / Occupants:
Other fatalities:0
Aircraft damage: Minor
Location:Oslo Gardermoen Airport -   Norway
Phase: Taxi
Nature:International Scheduled Passenger
Departure airport:Oslo-Gardermoen Airport (OSL/ENGM)
Destination airport:Stockholm-Arlanda Airport (ARN/ESSA)
Narrative:
SAS flight SK480 from Oslo to Stockholm skidded off a taxiway at Oslo Airport.

Weather about the time of the incident (0946Z):
ENGM 070950Z 33002KT 2300 1200W R19R/P2000N R01R/1600N BR OVC003 M08/M09 Q1005 TEMPO 1200 BCFG
ENGM 070920Z 36002KT 900 R19R/P2000N R01R/0900U FZFG BKN002 M07/M09 Q1005 TEMPO 1500 BR

Sources:

http://www.goklerdeyiz.net/oslo-stockholm-ucagi-pistten-cikti/
https://www.flightradar24.com/data/aircraft/se-roe#1f6c59ac


Images:

Photo of SE-ROE courtesy AirHistory.net


Helsinki - Vantaa (EFHK / HEL)
12 February 2018; (c) Pertti Sipilš

Revision history:

Date/timeContributorUpdates
07-Feb-2019 20:13 Goklerdeyiz.net Added
07-Feb-2019 20:16 harro Updated [Date, Time, Operator, Other fatalities, Location, Country, Departure airport, Destination airport, Source, Narrative]
10-Feb-2019 12:36 Qantas Updated [Damage]

Corrections or additions? ... Edit this accident description